createdAt,value
2023-03-02T00:01:58.157Z,22.40
2023-03-02T00:04:29.662Z,20.00
2023-03-02T00:07:05.621Z,19.50
2023-03-02T00:09:34.461Z,20.20
2023-03-02T00:12:03.403Z,17.50
2023-03-02T00:14:32.520Z,21.90
2023-03-02T00:17:03.188Z,17.00
2023-03-02T00:19:32.102Z,19.70
2023-03-02T00:22:00.625Z,20.10
2023-03-02T00:24:29.521Z,16.80
2023-03-02T00:26:58.822Z,17.00
2023-03-02T00:29:27.510Z,15.30
2023-03-02T00:31:56.115Z,19.30
2023-03-02T00:34:24.770Z,20.00
2023-03-02T00:36:53.222Z,16.60
2023-03-02T00:39:21.647Z,17.40
2023-03-02T00:41:50.281Z,18.00
2023-03-02T00:44:18.768Z,19.00
2023-03-02T00:46:47.576Z,14.50
2023-03-02T00:49:17.938Z,19.20
2023-03-02T00:51:49.290Z,15.30
2023-03-02T00:54:17.783Z,20.20
2023-03-02T00:56:46.801Z,18.00
2023-03-02T00:59:27.741Z,15.90
2023-03-02T01:02:07.659Z,20.70
2023-03-02T01:04:40.726Z,16.10
2023-03-02T01:07:12.643Z,17.00
2023-03-02T01:09:42.362Z,15.00
2023-03-02T01:12:11.633Z,15.80
2023-03-02T01:14:42.942Z,20.30
2023-03-02T01:17:11.432Z,21.50
2023-03-02T01:19:41.469Z,17.30
2023-03-02T01:22:10.147Z,17.80
2023-03-02T01:24:44.695Z,17.20
2023-03-02T01:27:13.572Z,14.70
2023-03-02T01:29:42.123Z,13.40
2023-03-02T01:32:10.762Z,15.00
2023-03-02T01:34:39.752Z,14.40
2023-03-02T01:37:08.194Z,13.00
2023-03-02T01:39:36.814Z,13.20
2023-03-02T01:42:07.313Z,10.80
2023-03-02T01:44:40.201Z,10.60
2023-03-02T01:47:15.504Z,12.80
2023-03-02T01:49:53.631Z,12.20
2023-03-02T01:52:24.205Z,12.40
2023-03-02T01:54:54.060Z,10.80
2023-03-02T01:57:24.254Z,9.80
2023-03-02T01:59:59.883Z,10.50
2023-03-02T02:02:28.538Z,13.70
2023-03-02T02:04:57.454Z,12.90
2023-03-02T02:07:25.840Z,14.80
2023-03-02T02:09:56.978Z,17.50
2023-03-02T02:12:26.422Z,20.90
2023-03-02T02:15:00.829Z,20.40
2023-03-02T02:17:30.408Z,20.10
2023-03-02T02:20:09.721Z,20.40
2023-03-02T02:22:38.125Z,21.80
2023-03-02T02:25:10.631Z,21.60
2023-03-02T02:27:41.093Z,20.10
2023-03-02T02:30:11.588Z,25.60
2023-03-02T02:32:40.255Z,22.70
2023-03-02T02:35:15.007Z,22.30
2023-03-02T02:37:46.413Z,27.80
2023-03-02T02:40:22.747Z,25.10
2023-03-02T02:42:51.860Z,23.20
2023-03-02T02:45:25.499Z,28.50
2023-03-02T02:47:55.360Z,33.50
2023-03-02T02:50:32.414Z,27.80
2023-03-02T02:53:15.503Z,31.80
2023-03-02T02:55:47.537Z,29.80
2023-03-02T02:58:42.621Z,34.70
2023-03-02T03:01:14.101Z,34.00
2023-03-02T03:03:46.819Z,39.40
2023-03-02T03:06:23.453Z,37.80
2023-03-02T03:08:54.414Z,37.70
2023-03-02T03:11:29.132Z,34.60
2023-03-02T03:14:18.877Z,37.10
2023-03-02T03:16:51.369Z,31.20
2023-03-02T03:19:27.156Z,33.10
2023-03-02T03:21:57.623Z,22.20
2023-03-02T03:24:33.060Z,25.10
2023-03-02T03:27:02.191Z,30.70
2023-03-02T03:29:31.733Z,28.90
2023-03-02T03:32:02.064Z,35.30
2023-03-02T03:34:41.057Z,35.20
2023-03-02T03:37:30.410Z,36.50
2023-03-02T03:40:06.592Z,30.90
2023-03-02T03:42:39.997Z,30.80
2023-03-02T03:45:09.190Z,39.10
2023-03-02T03:47:38.646Z,35.90
2023-03-02T03:50:09.576Z,39.20
2023-03-02T03:52:38.740Z,43.30
2023-03-02T03:55:33.722Z,38.60
2023-03-02T03:58:03.204Z,36.60
2023-03-02T04:00:31.690Z,32.80
2023-03-02T04:03:03.896Z,41.60
2023-03-02T04:05:33.856Z,39.90
2023-03-02T04:08:03.867Z,25.10
2023-03-02T04:10:35.048Z,24.90
2023-03-02T04:13:04.705Z,24.00
2023-03-02T04:15:34.599Z,22.80
2023-03-02T04:18:03.401Z,25.10
2023-03-02T04:20:33.378Z,22.90
2023-03-02T04:23:02.132Z,23.60
2023-03-02T04:25:33.832Z,26.60
2023-03-02T04:28:08.399Z,29.70
2023-03-02T04:30:45.155Z,33.00
2023-03-02T04:33:14.161Z,42.30
2023-03-02T04:35:43.056Z,38.00
2023-03-02T04:38:12.796Z,39.00
2023-03-02T04:40:41.574Z,48.60
2023-03-02T04:43:11.281Z,35.10
2023-03-02T04:45:40.914Z,36.90
2023-03-02T04:48:13.972Z,38.50
2023-03-02T04:50:45.256Z,36.10
2023-03-02T04:53:14.771Z,34.30
2023-03-02T04:55:43.267Z,27.20
2023-03-02T04:58:14.723Z,35.50
2023-03-02T05:00:43.109Z,31.90
2023-03-02T05:03:11.820Z,34.40
2023-03-02T05:05:40.255Z,29.30
2023-03-02T05:08:08.996Z,34.40
2023-03-02T05:10:41.572Z,32.30
2023-03-02T05:13:10.026Z,40.10
2023-03-02T05:15:39.964Z,40.70
2023-03-02T05:18:10.744Z,39.30
2023-03-02T05:20:39.451Z,40.10
2023-03-02T05:23:25.314Z,38.40
2023-03-02T05:25:55.377Z,34.90
2023-03-02T05:28:27.020Z,30.10
2023-03-02T05:30:55.838Z,31.70
2023-03-02T05:33:24.725Z,23.20
2023-03-02T05:35:53.213Z,24.50
2023-03-02T05:38:21.661Z,21.60
2023-03-02T05:40:50.428Z,20.30
2023-03-02T05:43:20.671Z,17.30
2023-03-02T05:45:50.333Z,18.20
2023-03-02T05:48:20.201Z,19.70
2023-03-02T05:50:48.739Z,18.20
2023-03-02T05:53:17.232Z,18.80
2023-03-02T05:55:45.674Z,21.80
2023-03-02T05:58:15.999Z,18.40
2023-03-02T06:00:50.661Z,20.70
2023-03-02T06:03:19.449Z,23.70
2023-03-02T06:05:52.528Z,25.10
2023-03-02T06:08:23.309Z,23.00
2023-03-02T06:10:56.235Z,24.80
2023-03-02T06:15:53.134Z,16.10
2023-03-02T06:18:21.988Z,17.40
2023-03-02T06:20:50.987Z,13.40
2023-03-02T06:23:19.980Z,10.60
2023-03-02T06:25:49.245Z,14.70
2023-03-02T06:28:20.209Z,16.50
2023-03-02T06:30:49.181Z,12.40
2023-03-02T06:33:21.706Z,15.60
2023-03-02T06:35:50.640Z,25.90
2023-03-02T06:38:19.259Z,24.10
2023-03-02T06:40:47.785Z,19.00
2023-03-02T06:43:17.258Z,18.60
2023-03-02T06:45:45.815Z,17.20
2023-03-02T06:48:14.323Z,17.70
2023-03-02T06:50:42.861Z,15.70
2023-03-02T06:53:12.482Z,16.80
2023-03-02T06:55:40.951Z,13.20
2023-03-02T06:58:13.364Z,13.40
2023-03-02T07:00:41.847Z,16.10
2023-03-02T07:03:12.861Z,21.20
2023-03-02T07:05:41.560Z,14.60
2023-03-02T07:08:15.696Z,15.90
2023-03-02T07:10:44.883Z,18.00
2023-03-02T07:13:13.407Z,19.80
2023-03-02T07:15:45.640Z,13.50
2023-03-02T07:18:15.516Z,17.80
2023-03-02T07:20:43.953Z,16.90
2023-03-02T07:23:12.993Z,17.40
2023-03-02T07:25:41.832Z,13.80
2023-03-02T07:28:12.051Z,12.70
2023-03-02T07:30:40.587Z,10.20
2023-03-02T07:33:09.193Z,11.90
2023-03-02T07:35:37.897Z,16.30
2023-03-02T07:38:06.407Z,11.40
2023-03-02T07:40:35.039Z,12.20
2023-03-02T07:43:03.753Z,13.60
2023-03-02T07:45:33.869Z,11.10
2023-03-02T07:48:02.782Z,13.80
2023-03-02T07:50:33.381Z,11.80
2023-03-02T07:53:02.136Z,11.30
2023-03-02T07:55:30.981Z,9.50
2023-03-02T07:58:00.728Z,11.80
2023-03-02T08:00:29.870Z,18.60
2023-03-02T08:02:58.383Z,12.80
2023-03-02T08:05:28.878Z,18.80
2023-03-02T08:07:57.357Z,13.50
2023-03-02T08:10:27.006Z,11.30
2023-03-02T08:12:55.597Z,11.40
2023-03-02T08:15:25.627Z,9.50
2023-03-02T08:17:54.360Z,12.40
2023-03-02T08:20:23.160Z,10.00
2023-03-02T08:22:52.479Z,11.50
2023-03-02T08:25:20.995Z,8.70
2023-03-02T08:27:49.833Z,10.60
2023-03-02T08:30:22.521Z,11.90
2023-03-02T08:32:51.519Z,12.20
2023-03-02T08:35:22.510Z,7.90
2023-03-02T08:37:51.856Z,10.80
2023-03-02T08:40:21.800Z,8.70
2023-03-02T08:42:57.042Z,6.70
2023-03-02T08:45:25.949Z,9.90
2023-03-02T08:47:55.081Z,7.00
2023-03-02T08:50:23.738Z,16.70
2023-03-02T08:52:52.731Z,7.80
2023-03-02T08:55:22.328Z,6.20
2023-03-02T08:57:50.913Z,9.40
2023-03-02T09:00:20.711Z,10.30
2023-03-02T09:02:49.439Z,10.60
2023-03-02T09:05:18.257Z,6.70
2023-03-02T09:07:46.898Z,6.10
2023-03-02T09:10:18.134Z,19.50
2023-03-02T09:12:48.998Z,24.60
2023-03-02T09:15:17.780Z,13.00
2023-03-02T09:17:53.386Z,17.40
2023-03-02T09:20:23.954Z,9.20
2023-03-02T09:22:52.607Z,7.40
2023-03-02T09:25:21.404Z,11.30
2023-03-02T09:27:50.519Z,4.30
2023-03-02T09:30:20.014Z,8.70
2023-03-02T09:32:49.477Z,13.30
2023-03-02T09:35:18.399Z,10.70
2023-03-02T09:37:47.200Z,7.00
2023-03-02T09:40:24.182Z,13.90
2023-03-02T09:43:17.750Z,10.70
2023-03-02T09:45:55.089Z,14.20
2023-03-02T09:48:53.790Z,8.70
2023-03-02T09:51:33.157Z,9.40
2023-03-02T09:54:10.925Z,25.10
2023-03-02T09:56:50.002Z,12.80
2023-03-02T09:59:38.443Z,9.40
2023-03-02T10:02:16.286Z,21.60
2023-03-02T10:04:49.638Z,21.80
2023-03-02T10:07:24.493Z,9.20
2023-03-02T10:09:53.002Z,12.20
2023-03-02T10:12:36.153Z,14.20
2023-03-02T10:15:43.911Z,11.10
2023-03-02T10:18:31.022Z,13.30
2023-03-02T10:21:09.828Z,10.20
2023-03-02T10:24:05.450Z,11.90
2023-03-02T10:29:49.412Z,8.70
2023-03-02T10:32:27.900Z,14.20
2023-03-02T10:35:02.549Z,8.80
2023-03-02T10:37:31.878Z,11.80
2023-03-02T10:40:11.736Z,14.40
2023-03-02T10:42:44.210Z,27.40
2023-03-02T10:45:30.223Z,22.60
2023-03-02T10:48:13.597Z,11.90
2023-03-02T10:50:43.238Z,9.10
2023-03-02T10:53:19.663Z,10.70
2023-03-02T10:55:53.270Z,8.30
2023-03-02T10:58:26.243Z,9.10
2023-03-02T11:00:57.582Z,10.50
2023-03-02T11:03:26.340Z,9.10
2023-03-02T11:05:56.203Z,7.50
2023-03-02T11:08:29.100Z,4.80
2023-03-02T11:11:01.504Z,3.60
2023-03-02T11:13:32.598Z,7.40
2023-03-02T11:16:21.817Z,11.30
2023-03-02T11:18:50.546Z,10.60
2023-03-02T11:21:33.521Z,9.80
2023-03-02T11:26:58.326Z,7.00
2023-03-02T11:29:37.607Z,14.70
2023-03-02T11:32:13.626Z,7.30
2023-03-02T11:34:54.974Z,20.80
2023-03-02T11:37:44.731Z,12.00
2023-03-02T11:40:26.781Z,15.40
2023-03-02T11:42:56.964Z,21.70
2023-03-02T11:45:30.569Z,12.70
2023-03-02T11:48:03.330Z,18.10
2023-03-02T11:50:34.648Z,15.70
2023-03-02T11:53:08.286Z,12.20
2023-03-02T11:55:45.798Z,10.30
2023-03-02T11:58:18.800Z,23.30
2023-03-02T12:00:47.980Z,19.10
2023-03-02T12:03:17.345Z,42.10
2023-03-02T12:06:01.364Z,19.00
2023-03-02T12:08:35.459Z,17.80
2023-03-02T12:11:08.607Z,15.40
2023-03-02T12:13:38.634Z,15.20
2023-03-02T12:16:24.256Z,20.90
2023-03-02T12:18:53.481Z,19.70
2023-03-02T12:21:23.563Z,13.60
2023-03-02T12:23:52.531Z,13.70
2023-03-02T12:26:21.059Z,16.40
2023-03-02T12:29:00.386Z,12.40
2023-03-02T12:31:47.154Z,15.70
2023-03-02T12:34:29.094Z,10.60
2023-03-02T12:37:00.539Z,14.80
2023-03-02T12:39:28.996Z,16.90
2023-03-02T12:42:15.793Z,15.80
2023-03-02T12:44:52.564Z,16.10
2023-03-02T12:47:27.505Z,12.40
2023-03-02T12:50:01.940Z,16.10
2023-03-02T12:52:35.395Z,14.90
2023-03-02T12:55:08.282Z,13.70
2023-03-02T12:57:38.715Z,15.10
2023-03-02T13:00:15.538Z,12.60
2023-03-02T13:02:49.392Z,8.00
2023-03-02T13:05:29.334Z,10.50
2023-03-02T13:08:06.123Z,12.70
2023-03-02T13:10:40.684Z,12.20
2023-03-02T13:13:25.210Z,14.00
2023-03-02T13:15:55.879Z,13.70
2023-03-02T13:18:26.074Z,9.20
2023-03-02T13:20:55.974Z,11.20
2023-03-02T13:23:24.983Z,9.40
2023-03-02T13:25:58.375Z,6.60
2023-03-02T13:28:38.640Z,9.30
2023-03-02T13:31:23.130Z,6.50
2023-03-02T13:33:54.852Z,7.30
2023-03-02T13:36:28.431Z,7.10
2023-03-02T13:38:59.649Z,10.20
2023-03-02T13:41:30.106Z,11.10
2023-03-02T13:44:12.698Z,12.10
2023-03-02T13:46:42.390Z,14.70
2023-03-02T13:49:11.834Z,10.00
2023-03-02T13:51:42.734Z,21.70
2023-03-02T13:54:17.327Z,12.10
2023-03-02T13:56:46.149Z,8.90
2023-03-02T13:59:16.739Z,14.40
2023-03-02T14:01:45.494Z,11.40
2023-03-02T14:04:28.079Z,8.80
2023-03-02T14:07:00.029Z,14.90
2023-03-02T14:09:28.574Z,9.10
2023-03-02T14:12:03.390Z,9.30
2023-03-02T14:14:33.395Z,6.80
2023-03-02T14:17:01.840Z,7.30
2023-03-02T14:19:31.847Z,12.80
2023-03-02T14:22:00.639Z,9.00
2023-03-02T14:24:29.213Z,7.60
2023-03-02T14:26:57.634Z,7.20
2023-03-02T14:29:27.822Z,8.10
2023-03-02T14:32:00.524Z,6.30
2023-03-02T14:34:29.902Z,7.00
2023-03-02T14:36:59.810Z,10.00
2023-03-02T14:39:43.329Z,7.30
2023-03-02T14:44:42.987Z,6.90
2023-03-02T14:47:11.881Z,10.30
2023-03-02T14:49:40.428Z,10.00
2023-03-02T14:52:32.736Z,9.40
2023-03-02T14:55:03.388Z,8.70
2023-03-02T14:57:33.984Z,10.70
2023-03-02T15:00:03.183Z,17.70
2023-03-02T15:02:32.068Z,10.60
2023-03-02T15:05:14.269Z,15.40
2023-03-02T15:07:44.265Z,16.70
2023-03-02T15:10:18.501Z,16.80
2023-03-02T15:12:47.011Z,17.10
2023-03-02T15:15:16.856Z,16.30
2023-03-02T15:17:45.860Z,12.60
2023-03-02T15:20:17.642Z,16.60
2023-03-02T15:22:47.392Z,18.10
2023-03-02T15:25:17.583Z,19.60
2023-03-02T15:27:47.162Z,16.70
2023-03-02T15:30:17.910Z,20.00
2023-03-02T15:32:47.851Z,21.10
2023-03-02T15:35:16.560Z,20.80
2023-03-02T15:37:45.712Z,21.50
2023-03-02T15:40:15.062Z,18.70
2023-03-02T15:42:43.525Z,17.10
2023-03-02T15:45:12.108Z,18.80
2023-03-02T15:47:40.597Z,18.40
2023-03-02T15:50:10.723Z,22.10
2023-03-02T15:52:39.332Z,29.10
2023-03-02T15:55:08.140Z,26.50
2023-03-02T15:57:39.256Z,29.80
2023-03-02T16:00:13.716Z,30.50
2023-03-02T16:02:43.523Z,51.70
2023-03-02T16:05:17.410Z,51.10
2023-03-02T16:07:46.895Z,48.90
2023-03-02T16:10:16.858Z,41.00
2023-03-02T16:12:45.282Z,43.80
2023-03-02T16:15:15.018Z,44.70
2023-03-02T16:17:44.151Z,40.60
2023-03-02T16:20:13.210Z,39.70
2023-03-02T16:22:41.780Z,33.70
2023-03-02T16:25:10.710Z,28.40
2023-03-02T16:27:39.506Z,27.00
2023-03-02T16:30:11.515Z,26.20
2023-03-02T16:32:40.734Z,22.90
2023-03-02T16:35:10.303Z,28.00
2023-03-02T16:37:41.377Z,29.10
2023-03-02T16:40:11.485Z,26.90
2023-03-02T16:42:41.729Z,27.30
2023-03-02T16:45:11.495Z,31.50
2023-03-02T16:47:40.202Z,30.20
2023-03-02T16:50:10.543Z,34.60
2023-03-02T16:52:39.080Z,55.80
2023-03-02T16:55:11.661Z,49.70
2023-03-02T16:57:41.126Z,46.10
2023-03-02T17:00:12.058Z,55.30
2023-03-02T17:02:41.085Z,38.60
2023-03-02T17:05:11.559Z,41.20
2023-03-02T17:07:42.094Z,56.70
2023-03-02T17:10:14.189Z,42.00
2023-03-02T17:15:14.229Z,31.70
2023-03-02T17:17:42.974Z,46.70
2023-03-02T17:20:13.277Z,36.80
2023-03-02T17:22:41.835Z,30.30
2023-03-02T17:25:11.624Z,33.30
2023-03-02T17:27:40.804Z,29.80
2023-03-02T17:30:14.057Z,39.00
2023-03-02T17:32:42.595Z,27.50
2023-03-02T17:35:13.112Z,31.90
2023-03-02T17:37:42.044Z,35.30
2023-03-02T17:40:14.494Z,36.20
2023-03-02T17:42:43.805Z,35.80
2023-03-02T17:45:19.602Z,30.70
2023-03-02T17:47:49.744Z,27.10
2023-03-02T17:50:18.192Z,38.00
2023-03-02T17:52:47.901Z,38.00
2023-03-02T17:55:16.851Z,41.40
2023-03-02T17:57:45.517Z,34.90
2023-03-02T18:00:17.049Z,32.40
2023-03-02T18:02:46.793Z,40.70
2023-03-02T18:05:16.099Z,29.70
2023-03-02T18:07:44.604Z,28.60
2023-03-02T18:10:13.639Z,36.10
2023-03-02T18:12:42.723Z,36.50
2023-03-02T18:15:12.064Z,30.80
2023-03-02T18:17:40.549Z,21.50
2023-03-02T18:20:10.227Z,24.20
2023-03-02T18:22:38.622Z,23.40
2023-03-02T18:25:08.010Z,22.50
2023-03-02T18:27:40.525Z,21.40
2023-03-02T18:30:09.992Z,21.50
2023-03-02T18:32:39.442Z,19.70
2023-03-02T18:35:08.262Z,20.20
2023-03-02T18:37:37.844Z,17.30
2023-03-02T18:40:07.262Z,15.40
2023-03-02T18:42:36.666Z,18.70
2023-03-02T18:45:07.402Z,15.10
2023-03-02T18:47:36.879Z,17.10
2023-03-02T18:50:05.807Z,21.80
2023-03-02T18:52:34.729Z,19.50
2023-03-02T18:55:04.934Z,18.90
2023-03-02T18:57:34.258Z,20.10
2023-03-02T19:00:03.766Z,14.40
2023-03-02T19:02:32.616Z,14.10
2023-03-02T19:05:01.926Z,15.30
2023-03-02T19:07:37.078Z,17.50
2023-03-02T19:10:07.728Z,14.60
2023-03-02T19:12:41.324Z,14.00
2023-03-02T19:15:11.018Z,13.60
2023-03-02T19:17:40.437Z,19.10
2023-03-02T19:20:16.888Z,13.70
2023-03-02T19:22:45.277Z,13.30
2023-03-02T19:25:13.807Z,12.20
2023-03-02T19:27:42.282Z,10.90
2023-03-02T19:30:16.753Z,13.50
2023-03-02T19:35:18.118Z,12.60
2023-03-02T19:37:46.612Z,12.40
2023-03-02T19:40:17.587Z,14.20
2023-03-02T19:42:46.431Z,14.80
2023-03-02T19:45:17.177Z,14.60
2023-03-02T19:47:47.311Z,14.40
2023-03-02T19:50:35.646Z,15.80
2023-03-02T19:53:06.157Z,14.70
2023-03-02T19:55:34.577Z,15.60
2023-03-02T19:58:05.109Z,15.60
2023-03-02T20:00:34.498Z,13.50
2023-03-02T20:03:06.242Z,18.50
2023-03-02T20:05:37.390Z,15.30
2023-03-02T20:08:07.106Z,15.30
2023-03-02T20:10:38.384Z,15.70
2023-03-02T20:13:07.069Z,14.40
2023-03-02T20:15:39.330Z,14.30
2023-03-02T20:18:10.045Z,13.00
2023-03-02T20:36:31.945Z,12.30
2023-03-02T20:39:05.811Z,14.90
2023-03-02T20:41:34.185Z,14.00
2023-03-02T20:44:04.099Z,13.60
2023-03-02T20:46:36.662Z,15.40
2023-03-02T20:49:09.726Z,14.30
2023-03-02T20:51:39.342Z,15.40
2023-03-02T20:54:07.957Z,15.60
2023-03-02T20:56:37.502Z,13.80
2023-03-02T20:59:06.213Z,15.20
2023-03-02T21:01:34.618Z,17.90
2023-03-02T21:04:03.603Z,14.60
2023-03-02T21:06:36.558Z,16.40
2023-03-02T21:09:06.638Z,16.40
2023-03-02T21:11:41.516Z,15.30
2023-03-02T21:14:14.358Z,16.00
2023-03-02T21:16:43.693Z,8.60
2023-03-02T21:19:18.727Z,12.90
2023-03-02T21:21:47.439Z,10.70
2023-03-02T21:24:17.153Z,12.90
2023-03-02T21:26:46.489Z,14.40
2023-03-02T21:29:15.260Z,11.80
2023-03-02T21:31:44.194Z,15.30
2023-03-02T21:34:13.053Z,14.50
2023-03-02T21:36:42.865Z,12.70
2023-03-02T21:39:12.277Z,14.00
2023-03-02T21:41:40.658Z,17.60
2023-03-02T21:44:09.372Z,14.00
2023-03-02T21:46:39.586Z,16.30
2023-03-02T21:49:08.050Z,20.10
2023-03-02T21:51:36.530Z,14.50
2023-03-02T21:54:05.783Z,16.40
2023-03-02T21:56:35.699Z,15.40
2023-03-02T21:59:06.165Z,15.10
2023-03-02T22:01:35.076Z,5.20
2023-03-02T22:04:03.732Z,13.20
2023-03-02T22:06:33.500Z,14.20
2023-03-02T22:09:02.104Z,15.00
2023-03-02T22:11:33.169Z,14.30
2023-03-02T22:14:15.929Z,17.60
2023-03-02T22:16:47.575Z,16.10
2023-03-02T22:19:31.974Z,18.00
2023-03-02T22:22:01.419Z,15.60
2023-03-02T22:24:34.142Z,13.60
2023-03-02T22:27:29.596Z,15.60
2023-03-02T22:30:00.297Z,19.50
2023-03-02T22:32:36.623Z,11.20
2023-03-02T22:35:22.288Z,11.60
2023-03-02T22:37:54.759Z,9.70
2023-03-02T22:40:30.113Z,13.20
2023-03-02T22:43:31.620Z,12.40
2023-03-02T22:46:15.658Z,12.70
2023-03-02T22:48:45.614Z,12.40
2023-03-02T22:51:15.421Z,16.00
2023-03-02T22:54:07.897Z,10.10
2023-03-02T22:56:57.172Z,10.10
2023-03-02T22:59:27.004Z,12.40
2023-03-02T23:02:00.221Z,11.20
2023-03-02T23:04:32.434Z,11.70
2023-03-02T23:07:01.331Z,13.30
2023-03-02T23:09:34.219Z,13.50
2023-03-02T23:12:26.935Z,13.80
2023-03-02T23:14:58.696Z,7.90
2023-03-02T23:17:39.194Z,13.90
2023-03-02T23:20:11.131Z,9.80
2023-03-02T23:22:40.384Z,14.20
2023-03-02T23:25:09.441Z,21.70
2023-03-02T23:27:38.854Z,23.90
2023-03-02T23:30:07.888Z,22.90
2023-03-02T23:32:36.853Z,23.60
2023-03-02T23:35:06.042Z,19.90
2023-03-02T23:37:35.425Z,20.50
2023-03-02T23:40:04.589Z,18.50
2023-03-02T23:42:33.508Z,14.80
2023-03-02T23:45:01.951Z,12.70
2023-03-02T23:47:31.480Z,13.70
2023-03-02T23:50:00.103Z,12.60
2023-03-02T23:52:28.832Z,10.50
2023-03-02T23:54:57.403Z,9.80
2023-03-02T23:57:27.154Z,10.00
2023-03-02T23:59:56.177Z,9.80
